Terminal Aerodrome Forecast
Issued by NWS

Home | Current Version | Previous Version | Text Only | Print | Product List | Glossary On
Versions: 1 2 3 4 5 6 7 8 9 10 11 12 13 14 15 16 17 18 19 20
000
FTUS41 KOKX 211400 AAA
TAFSWF
TAF AMD
KSWF 211430Z 2115/2218 20007KT P6SM SCT250
     FM220200 22003KT P6SM SCT250
     FM221300 22008KT P6SM FEW050 BKN200
      AMD NOT SKED=

USA.gov is the U.S. government's official web portal to all federal, state and local government web resources and services.